createdAt,value
2023-05-05T00:02:22.713Z,58.96
2023-05-05T00:05:25.487Z,58.74
2023-05-05T00:08:28.593Z,58.82
2023-05-05T00:11:30.997Z,58.77
2023-05-05T00:14:33.355Z,58.96
2023-05-05T00:17:35.778Z,59.08
2023-05-05T00:20:38.321Z,58.80
2023-05-05T00:23:40.819Z,58.98
2023-05-05T00:26:43.237Z,58.99
2023-05-05T00:29:45.974Z,59.03
2023-05-05T00:32:49.385Z,59.36
2023-05-05T00:35:51.819Z,59.21
2023-05-05T00:38:54.249Z,59.03
2023-05-05T00:41:56.691Z,59.12
2023-05-05T00:44:59.310Z,59.29
2023-05-05T00:48:01.874Z,59.06
2023-05-05T00:51:08.861Z,59.09
2023-05-05T00:54:11.467Z,59.06
2023-05-05T00:57:13.832Z,59.22
2023-05-05T01:00:16.948Z,59.04
2023-05-05T01:03:19.412Z,59.35
2023-05-05T01:06:22.349Z,59.22
2023-05-05T01:09:43.429Z,59.30
2023-05-05T01:12:59.399Z,59.29
2023-05-05T01:16:05.099Z,59.14
2023-05-05T01:19:16.648Z,59.53
2023-05-05T01:22:20.671Z,59.53
2023-05-05T01:25:50.846Z,59.49
2023-05-05T01:29:07.718Z,59.36
2023-05-05T01:32:12.016Z,59.49
2023-05-05T01:35:19.283Z,59.41
2023-05-05T01:38:24.907Z,59.22
2023-05-05T01:41:32.549Z,59.81
2023-05-05T01:44:36.955Z,59.38
2023-05-05T01:47:40.468Z,59.80
2023-05-05T01:50:43.957Z,59.81
2023-05-05T01:53:47.365Z,59.84
2023-05-05T01:56:50.704Z,59.82
2023-05-05T01:59:53.347Z,59.78
2023-05-05T02:02:59.974Z,59.80
2023-05-05T02:06:02.944Z,59.96
2023-05-05T02:09:05.713Z,59.81
2023-05-05T02:12:08.604Z,59.85
2023-05-05T02:15:12.186Z,60.18
2023-05-05T02:18:14.969Z,60.09
2023-05-05T02:21:21.034Z,59.91
2023-05-05T02:24:24.400Z,59.99
2023-05-05T02:27:27.116Z,60.11
2023-05-05T02:30:33.642Z,59.93
2023-05-05T02:33:38.136Z,60.03
2023-05-05T02:36:42.503Z,59.99
2023-05-05T02:39:58.839Z,60.37
2023-05-05T02:43:06.000Z,60.35
2023-05-05T02:46:09.445Z,60.14
2023-05-05T02:49:15.254Z,60.08
2023-05-05T02:52:18.355Z,59.99
2023-05-05T02:55:21.377Z,60.17
2023-05-05T02:58:31.148Z,60.19
2023-05-05T03:01:47.456Z,60.15
2023-05-05T03:04:58.321Z,60.27
2023-05-05T03:08:06.006Z,60.27
2023-05-05T03:11:16.787Z,60.17
2023-05-05T03:14:21.484Z,60.47
2023-05-05T03:17:25.954Z,60.29
2023-05-05T03:20:29.328Z,60.14
2023-05-05T03:23:34.801Z,60.37
2023-05-05T03:26:38.573Z,60.38
2023-05-05T03:29:41.206Z,60.28
2023-05-05T03:32:48.574Z,60.37
2023-05-05T03:35:51.535Z,60.46
2023-05-05T03:38:54.655Z,60.68
2023-05-05T03:41:58.036Z,60.11
2023-05-05T03:45:05.052Z,60.22
2023-05-05T03:48:09.683Z,60.13
2023-05-05T03:51:13.753Z,60.28
2023-05-05T03:54:17.233Z,60.21
2023-05-05T03:57:19.769Z,60.34
2023-05-05T04:00:22.301Z,60.48
2023-05-05T04:03:25.035Z,60.41
2023-05-05T04:06:27.850Z,59.83
2023-05-05T04:09:30.356Z,59.90
2023-05-05T04:12:33.069Z,59.96
2023-05-05T04:15:35.674Z,59.88
2023-05-05T04:18:38.329Z,59.97
2023-05-05T04:21:40.960Z,60.02
2023-05-05T04:24:43.478Z,59.90
2023-05-05T04:27:46.051Z,60.07
2023-05-05T04:30:49.715Z,59.88
2023-05-05T04:33:52.222Z,59.99
2023-05-05T04:36:55.010Z,59.55
2023-05-05T04:39:58.150Z,59.59
2023-05-05T04:43:00.656Z,59.80
2023-05-05T04:46:04.419Z,59.37
2023-05-05T04:49:09.476Z,59.45
2023-05-05T04:52:14.959Z,59.28
2023-05-05T04:55:17.419Z,59.04
2023-05-05T04:58:19.779Z,59.24
2023-05-05T05:01:22.248Z,59.28
2023-05-05T05:04:26.018Z,58.75
2023-05-05T05:07:28.419Z,58.64
2023-05-05T05:10:30.766Z,58.20
2023-05-05T05:13:33.270Z,58.13
2023-05-05T05:16:35.813Z,57.83
2023-05-05T05:19:38.318Z,57.78
2023-05-05T05:22:42.230Z,57.61
2023-05-05T05:25:49.337Z,57.59
2023-05-05T05:28:54.074Z,57.32
2023-05-05T05:31:56.719Z,57.32
2023-05-05T05:34:59.237Z,57.31
2023-05-05T05:38:02.325Z,57.23
2023-05-05T05:41:06.595Z,57.14
2023-05-05T05:44:10.270Z,56.80
2023-05-05T05:47:13.204Z,56.39
2023-05-05T05:50:16.393Z,56.48
2023-05-05T05:53:19.079Z,56.13
2023-05-05T05:56:22.120Z,56.04
2023-05-05T05:59:25.365Z,55.73
2023-05-05T06:02:27.884Z,55.79
2023-05-05T06:05:31.445Z,55.58
2023-05-05T06:08:34.351Z,55.43
2023-05-05T06:11:37.226Z,55.77
2023-05-05T06:14:39.767Z,55.40
2023-05-05T06:17:42.777Z,55.20
2023-05-05T06:20:45.328Z,54.95
2023-05-05T06:23:50.263Z,54.78
2023-05-05T06:27:02.777Z,54.53
2023-05-05T06:30:06.846Z,53.64
2023-05-05T06:33:09.497Z,53.49
2023-05-05T06:36:12.050Z,53.20
2023-05-05T06:39:16.027Z,52.50
2023-05-05T06:42:18.669Z,52.31
2023-05-05T06:45:21.976Z,51.63
2023-05-05T06:48:24.563Z,50.14
2023-05-05T06:51:27.772Z,49.80
2023-05-05T06:54:30.368Z,49.15
2023-05-05T06:57:35.365Z,49.02
2023-05-05T07:00:41.040Z,49.19
2023-05-05T07:03:44.414Z,48.92
2023-05-05T07:06:47.516Z,48.21
2023-05-05T07:09:49.892Z,46.56
2023-05-05T07:12:52.564Z,46.04
2023-05-05T07:15:55.095Z,45.38
2023-05-05T07:18:57.532Z,45.08
2023-05-05T07:22:00.023Z,45.02
2023-05-05T07:25:03.942Z,44.67
2023-05-05T07:28:06.536Z,43.78
2023-05-05T07:31:15.616Z,42.87
2023-05-05T07:34:21.143Z,42.94
2023-05-05T07:37:23.681Z,42.79
2023-05-05T07:40:30.518Z,43.09
2023-05-05T07:43:33.582Z,42.56
2023-05-05T07:46:36.366Z,41.62
2023-05-05T07:49:39.073Z,41.69
2023-05-05T07:52:48.263Z,42.03
2023-05-05T07:55:54.162Z,42.40
2023-05-05T07:58:59.777Z,42.55
2023-05-05T08:02:02.217Z,41.55
2023-05-05T08:05:05.085Z,40.49
2023-05-05T08:08:07.944Z,41.46
2023-05-05T08:11:10.363Z,42.20
2023-05-05T08:14:12.745Z,41.49
2023-05-05T08:17:15.112Z,41.16
2023-05-05T08:20:18.608Z,41.73
2023-05-05T08:23:21.594Z,42.21
2023-05-05T08:26:23.934Z,42.60
2023-05-05T08:29:26.336Z,44.01
2023-05-05T08:32:29.892Z,44.10
2023-05-05T08:35:32.353Z,44.08
2023-05-05T08:38:34.746Z,44.36
2023-05-05T08:41:37.170Z,44.54
2023-05-05T08:44:39.695Z,44.65
2023-05-05T08:47:43.406Z,44.86
2023-05-05T08:50:49.177Z,44.93
2023-05-05T08:54:03.243Z,44.96
2023-05-05T08:57:07.555Z,43.25
2023-05-05T09:00:11.323Z,44.35
2023-05-05T09:03:14.704Z,44.85
2023-05-05T09:06:17.479Z,45.24
2023-05-05T09:09:20.615Z,45.36
2023-05-05T09:12:23.484Z,45.30
2023-05-05T09:15:28.403Z,45.36
2023-05-05T09:18:30.991Z,45.14
2023-05-05T09:21:33.471Z,45.55
2023-05-05T09:24:35.880Z,45.75
2023-05-05T09:27:42.163Z,45.33
2023-05-05T09:30:46.357Z,45.52
2023-05-05T09:33:48.943Z,45.48
2023-05-05T09:36:51.378Z,45.64
2023-05-05T09:39:54.568Z,45.63
2023-05-05T09:43:02.028Z,45.56
2023-05-05T09:46:08.465Z,46.29
2023-05-05T09:49:19.667Z,46.45
2023-05-05T09:52:22.282Z,46.75
2023-05-05T09:55:25.161Z,46.71
2023-05-05T09:58:29.422Z,46.52
2023-05-05T10:01:31.868Z,46.33
2023-05-05T10:04:34.345Z,45.77
2023-05-05T10:07:37.792Z,46.25
2023-05-05T10:10:56.233Z,45.67
2023-05-05T10:13:58.643Z,45.75
2023-05-05T10:17:01.858Z,46.71
2023-05-05T10:20:04.780Z,46.51
2023-05-05T10:23:08.480Z,47.06
2023-05-05T10:26:13.653Z,46.23
2023-05-05T10:29:48.925Z,46.17
2023-05-05T10:33:00.839Z,47.20
2023-05-05T10:36:11.146Z,47.80
2023-05-05T10:39:17.223Z,47.57
2023-05-05T10:42:20.217Z,47.34
2023-05-05T10:45:22.709Z,47.27
2023-05-05T10:48:33.858Z,47.68
2023-05-05T10:51:45.495Z,48.13
2023-05-05T10:54:55.731Z,48.11
2023-05-05T10:57:58.123Z,48.15
2023-05-05T11:01:00.912Z,48.07
2023-05-05T11:04:23.157Z,48.24
2023-05-05T11:07:27.599Z,48.10
2023-05-05T11:10:44.277Z,47.68
2023-05-05T11:13:46.634Z,47.94
2023-05-05T11:16:50.617Z,47.77
2023-05-05T11:19:53.516Z,47.24
2023-05-05T11:23:05.472Z,46.53
2023-05-05T11:26:08.945Z,47.10
2023-05-05T11:29:11.427Z,47.56
2023-05-05T11:32:14.394Z,47.58
2023-05-05T11:35:16.819Z,47.48
2023-05-05T11:38:20.209Z,47.63
2023-05-05T11:41:32.117Z,46.87
2023-05-05T11:44:34.725Z,46.46
2023-05-05T11:47:37.203Z,45.69
2023-05-05T11:50:39.746Z,46.95
2023-05-05T11:53:50.000Z,46.52
2023-05-05T11:57:02.109Z,47.23
2023-05-05T12:00:08.056Z,46.03
2023-05-05T12:03:10.867Z,45.21
2023-05-05T12:06:13.312Z,46.31
2023-05-05T12:09:16.915Z,45.29
2023-05-05T12:12:19.580Z,44.96
2023-05-05T12:15:29.386Z,44.77
2023-05-05T12:18:31.712Z,45.67
2023-05-05T12:21:38.332Z,46.61
2023-05-05T12:24:40.709Z,46.28
2023-05-05T12:27:51.977Z,45.80
2023-05-05T12:30:58.085Z,46.47
2023-05-05T12:34:00.537Z,45.79
2023-05-05T12:37:03.445Z,46.21
2023-05-05T12:40:07.497Z,46.08
2023-05-05T12:43:10.878Z,46.35
2023-05-05T12:46:13.893Z,46.50
2023-05-05T12:49:17.020Z,46.22
2023-05-05T12:52:19.481Z,45.86
2023-05-05T12:55:36.142Z,46.29
2023-05-05T12:58:50.956Z,45.69
2023-05-05T13:01:55.467Z,46.03
2023-05-05T13:04:57.962Z,46.00
2023-05-05T13:08:00.526Z,46.02
2023-05-05T13:11:03.216Z,46.54
2023-05-05T13:14:06.835Z,46.55
2023-05-05T13:17:10.606Z,46.52
2023-05-05T13:20:14.163Z,46.36
2023-05-05T13:23:16.556Z,46.47
2023-05-05T13:26:18.988Z,46.47
2023-05-05T13:29:21.431Z,46.26
2023-05-05T13:32:23.946Z,46.49
2023-05-05T13:35:26.566Z,46.59
2023-05-05T13:38:29.274Z,46.49
2023-05-05T13:41:31.639Z,46.54
2023-05-05T13:44:35.528Z,46.73
2023-05-05T13:47:38.466Z,46.60
2023-05-05T13:50:40.848Z,46.70
2023-05-05T13:53:44.252Z,46.80
2023-05-05T13:56:46.685Z,46.74
2023-05-05T13:59:49.039Z,47.02
2023-05-05T14:02:51.495Z,47.07
2023-05-05T14:05:53.834Z,47.11
2023-05-05T14:08:56.394Z,47.24
2023-05-05T14:11:59.116Z,47.22
2023-05-05T14:15:01.665Z,47.23
2023-05-05T14:18:04.186Z,47.38
2023-05-05T14:21:06.607Z,47.36
2023-05-05T14:24:09.065Z,47.50
2023-05-05T14:27:11.504Z,47.49
2023-05-05T14:30:14.350Z,47.53
2023-05-05T14:33:17.137Z,47.72
2023-05-05T14:36:19.614Z,47.66
2023-05-05T14:39:21.943Z,47.67
2023-05-05T14:42:25.120Z,47.77
2023-05-05T14:45:29.659Z,48.04
2023-05-05T14:48:35.249Z,47.92
2023-05-05T14:51:37.638Z,48.12
2023-05-05T14:54:39.984Z,48.13
2023-05-05T14:57:42.325Z,48.06
2023-05-05T15:00:44.672Z,47.97
2023-05-05T15:03:47.059Z,48.04
2023-05-05T15:06:49.521Z,48.27
2023-05-05T15:09:51.830Z,48.29
2023-05-05T15:12:54.174Z,48.25
2023-05-05T15:15:56.602Z,48.42
2023-05-05T15:18:58.970Z,48.46
2023-05-05T15:22:01.340Z,48.40
2023-05-05T15:25:03.944Z,48.70
2023-05-05T15:28:06.289Z,48.72
2023-05-05T15:31:08.659Z,48.64
2023-05-05T15:34:11.023Z,48.49
2023-05-05T15:37:13.373Z,48.85
2023-05-05T15:40:15.896Z,48.76
2023-05-05T15:43:18.298Z,48.86
2023-05-05T15:46:20.874Z,48.75
2023-05-05T15:49:23.253Z,48.96
2023-05-05T15:52:25.668Z,48.93
2023-05-05T15:55:28.240Z,49.03
2023-05-05T15:58:43.652Z,48.86
2023-05-05T16:01:50.243Z,49.39
2023-05-05T16:04:56.133Z,49.21
2023-05-05T16:07:59.128Z,49.22
2023-05-05T16:11:01.471Z,49.10
2023-05-05T16:14:04.111Z,49.01
2023-05-05T16:17:07.761Z,49.18
2023-05-05T16:20:11.267Z,49.35
2023-05-05T16:23:13.672Z,49.14
2023-05-05T16:26:16.644Z,49.17
2023-05-05T16:29:19.011Z,49.21
2023-05-05T16:32:21.389Z,49.24
2023-05-05T16:35:23.712Z,49.27
2023-05-05T16:38:26.142Z,49.36
2023-05-05T16:41:28.690Z,49.59
2023-05-05T16:44:31.171Z,49.58
2023-05-05T16:47:33.659Z,49.43
2023-05-05T16:50:36.003Z,49.51
2023-05-05T16:53:38.506Z,49.70
2023-05-05T16:56:40.948Z,49.72
2023-05-05T16:59:43.342Z,49.67
2023-05-05T17:02:45.809Z,49.78
2023-05-05T17:05:50.250Z,49.72
2023-05-05T17:08:52.791Z,49.86
2023-05-05T17:11:55.228Z,49.95
2023-05-05T17:14:57.554Z,49.78
2023-05-05T17:17:59.952Z,49.89
2023-05-05T17:21:02.294Z,49.99
2023-05-05T17:24:05.056Z,49.71
2023-05-05T17:27:07.588Z,49.88
2023-05-05T17:30:10.298Z,49.85
2023-05-05T17:33:12.750Z,50.00
2023-05-05T17:36:15.119Z,50.16
2023-05-05T17:39:17.544Z,50.20
2023-05-05T17:42:22.987Z,50.03
2023-05-05T17:45:25.438Z,50.33
2023-05-05T17:48:27.899Z,50.31
2023-05-05T17:51:31.413Z,50.47
2023-05-05T17:54:33.763Z,50.60
2023-05-05T17:57:36.263Z,50.53
2023-05-05T18:00:38.576Z,50.45
2023-05-05T18:03:41.211Z,50.69
2023-05-05T18:06:43.720Z,50.97
2023-05-05T18:09:46.087Z,50.84
2023-05-05T18:12:48.560Z,50.91
2023-05-05T18:15:51.030Z,51.01
2023-05-05T18:18:53.496Z,51.10
2023-05-05T18:21:55.872Z,51.24
2023-05-05T18:24:59.725Z,51.04
2023-05-05T18:28:02.141Z,51.46
2023-05-05T18:31:04.707Z,51.31
2023-05-05T18:34:07.172Z,51.67
2023-05-05T18:37:09.552Z,51.47
2023-05-05T18:40:12.304Z,51.47
2023-05-05T18:43:14.673Z,51.63
2023-05-05T18:46:17.249Z,51.77
2023-05-05T18:49:19.692Z,51.77
2023-05-05T18:52:22.008Z,51.95
2023-05-05T18:55:24.461Z,52.40
2023-05-05T18:58:27.389Z,52.03
2023-05-05T19:01:29.796Z,52.15
2023-05-05T19:04:33.006Z,52.57
2023-05-05T19:07:36.118Z,52.54
2023-05-05T19:10:38.661Z,52.34
2023-05-05T19:13:41.370Z,52.45
2023-05-05T19:16:44.093Z,52.54
2023-05-05T19:19:46.493Z,52.66
2023-05-05T19:22:49.022Z,52.71
2023-05-05T19:25:52.920Z,52.84
2023-05-05T19:28:55.362Z,52.91
2023-05-05T19:31:57.856Z,53.04
2023-05-05T19:35:00.686Z,53.08
2023-05-05T19:38:03.100Z,53.13
2023-05-05T19:41:05.501Z,53.27
2023-05-05T19:44:07.904Z,53.15
2023-05-05T19:47:10.946Z,53.45
2023-05-05T19:50:15.471Z,53.55
2023-05-05T19:53:17.836Z,53.57
2023-05-05T19:56:20.180Z,53.45
2023-05-05T19:59:22.854Z,53.29
2023-05-05T20:02:27.230Z,53.95
2023-05-05T20:05:29.720Z,53.72
2023-05-05T20:08:32.147Z,53.89
2023-05-05T20:11:34.642Z,53.85
2023-05-05T20:14:37.045Z,53.82
2023-05-05T20:17:39.469Z,53.92
2023-05-05T20:20:42.207Z,54.06
2023-05-05T20:23:45.603Z,54.15
2023-05-05T20:26:47.944Z,54.21
2023-05-05T20:29:50.320Z,54.43
2023-05-05T20:32:53.607Z,54.19
2023-05-05T20:35:56.011Z,54.29
2023-05-05T20:38:58.338Z,54.52
2023-05-05T20:42:01.274Z,54.51
2023-05-05T20:45:04.057Z,54.47
2023-05-05T20:48:09.846Z,54.41
2023-05-05T20:51:12.268Z,54.74
2023-05-05T20:54:14.638Z,54.51
2023-05-05T20:57:17.020Z,54.69
2023-05-05T21:00:19.381Z,54.72
2023-05-05T21:03:21.748Z,54.78
2023-05-05T21:06:24.383Z,54.83
2023-05-05T21:09:26.893Z,54.77
2023-05-05T21:12:29.892Z,54.94
2023-05-05T21:15:32.650Z,55.11
2023-05-05T21:18:36.134Z,55.18
2023-05-05T21:21:38.511Z,54.95
2023-05-05T21:24:40.873Z,55.18
2023-05-05T21:27:43.390Z,55.16
2023-05-05T21:30:54.838Z,55.19
2023-05-05T21:34:07.272Z,55.17
2023-05-05T21:37:09.717Z,55.22
2023-05-05T21:40:14.000Z,55.31
2023-05-05T21:43:17.050Z,55.49
2023-05-05T21:46:19.430Z,55.60
2023-05-05T21:49:21.951Z,55.39
2023-05-05T21:52:24.294Z,55.40
2023-05-05T21:55:26.645Z,55.60
2023-05-05T21:58:29.299Z,55.87
2023-05-05T22:01:31.979Z,55.66
2023-05-05T22:04:34.301Z,55.87
2023-05-05T22:07:37.065Z,55.57
2023-05-05T22:10:39.577Z,55.55
2023-05-05T22:13:42.099Z,55.89
2023-05-05T22:16:44.487Z,55.63
2023-05-05T22:19:46.851Z,55.66
2023-05-05T22:22:49.253Z,56.12
2023-05-05T22:25:51.615Z,55.82
2023-05-05T22:28:53.961Z,55.74
2023-05-05T22:31:56.310Z,56.08
2023-05-05T22:34:58.687Z,55.91
2023-05-05T22:38:01.533Z,56.13
2023-05-05T22:41:04.052Z,55.79
2023-05-05T22:44:06.969Z,55.94
2023-05-05T22:47:09.441Z,56.15
2023-05-05T22:50:11.773Z,56.18
2023-05-05T22:53:14.151Z,56.09
2023-05-05T22:56:16.939Z,56.28
2023-05-05T22:59:19.331Z,56.18
2023-05-05T23:02:21.749Z,56.34
2023-05-05T23:05:24.207Z,56.08
2023-05-05T23:08:26.673Z,56.38
2023-05-05T23:11:29.056Z,56.22
2023-05-05T23:14:31.467Z,56.30
2023-05-05T23:17:33.896Z,56.27
2023-05-05T23:20:36.277Z,56.01
2023-05-05T23:23:38.608Z,56.05
2023-05-05T23:26:40.977Z,56.55
2023-05-05T23:29:43.308Z,56.28
2023-05-05T23:32:46.038Z,56.39
2023-05-05T23:35:48.509Z,56.41
2023-05-05T23:38:50.823Z,56.27
2023-05-05T23:41:53.159Z,56.51
2023-05-05T23:44:55.549Z,56.33
2023-05-05T23:47:57.944Z,56.75
2023-05-05T23:51:00.330Z,56.62
2023-05-05T23:54:02.730Z,56.52
2023-05-05T23:57:05.155Z,56.35
